Time;durP1;ratioP1;P1;durP2;ratioP2;P2;SDS_P1;SDS_P2;PMS_P1;PMS_P2;Temp;Humidity;BMP_temperature;BMP_pressure;BME280_temperature;BME280_humidity;BME280_pressure;Samples;Min_cycle;Max_cycle;Signal;HPM_P1;HPM_P2
2024/04/19 00:01:17;;;;;;;12.07;4.75;;;;;;;9.18;nan;100860.28;5179420;27;20004;-96
2024/04/19 00:03:42;;;;;;;12.70;4.75;;;;;;;9.17;nan;100861.22;5181517;27;20005;-96
2024/04/19 00:06:09;;;;;;;25.00;7.57;;;;;;;9.20;nan;100861.06;5181900;27;20015;-96
2024/04/19 00:08:36;;;;;;;10.50;3.58;;;;;;;9.30;nan;100875.19;5186792;27;20068;-96
2024/04/19 00:11:05;;;;;;;15.75;5.55;;;;;;;9.22;nan;100851.53;5188175;27;20013;-96
2024/04/19 00:13:34;;;;;;;14.77;5.32;;;;;;;9.28;nan;100858.97;5191221;27;19997;-96
2024/04/19 00:16:00;;;;;;;18.08;4.85;;;;;;;9.29;nan;100862.38;5188978;27;20012;-96
2024/04/19 00:18:26;;;;;;;16.80;3.95;;;;;;;9.24;nan;100848.88;5188841;27;20006;-96
2024/04/19 00:20:54;;;;;;;17.92;4.22;;;;;;;9.26;nan;100858.19;5188591;27;19996;-96
2024/04/19 00:23:20;;;;;;;26.02;6.00;;;;;;;9.16;nan;100844.06;5187378;27;20007;-96
2024/04/19 00:25:45;;;;;;;18.80;6.03;;;;;;;9.14;nan;100838.16;5189972;27;20000;-96
2024/04/19 00:28:14;;;;;;;20.42;6.68;;;;;;;9.12;nan;100829.66;5192997;27;20000;-96
2024/04/19 00:30:43;;;;;;;16.33;5.13;;;;;;;9.15;nan;100826.97;5174619;27;20005;-96
2024/04/19 00:33:09;;;;;;;15.73;5.43;;;;;;;9.16;nan;100833.75;5186062;27;20012;-96
2024/04/19 00:35:36;;;;;;;16.25;6.25;;;;;;;9.09;nan;100822.06;5156620;27;20001;-96
2024/04/19 00:38:01;;;;;;;16.55;5.45;;;;;;;8.96;nan;100827.75;5185629;27;20009;-96
2024/04/19 00:40:33;;;;;;;18.55;5.78;;;;;;;8.99;nan;100830.19;5157476;27;19997;-96
2024/04/19 00:42:59;;;;;;;18.85;6.50;;;;;;;9.03;nan;100822.34;5156651;27;19993;-96
2024/04/19 00:45:36;;;;;;;21.45;6.53;;;;;;;9.15;nan;100824.38;5186908;27;20023;-96
2024/04/19 00:48:11;;;;;;;17.35;5.00;;;;;;;9.19;nan;100833.63;5188433;27;20024;-95
2024/04/19 00:50:39;;;;;;;20.85;5.43;;;;;;;9.12;nan;100834.78;5190027;27;19999;-96
2024/04/19 00:53:06;;;;;;;19.33;5.28;;;;;;;9.10;nan;100821.19;5190932;27;20523;-96
2024/04/19 00:55:34;;;;;;;14.15;4.47;;;;;;;9.08;nan;100810.94;5188147;27;20009;-96
2024/04/19 00:58:00;;;;;;;24.60;5.95;;;;;;;9.13;nan;100818.47;5190326;27;20005;-96
2024/04/19 01:00:26;;;;;;;14.93;5.82;;;;;;;9.16;nan;100810.59;5183394;27;20478;-96
2024/04/19 01:02:56;;;;;;;17.05;5.57;;;;;;;9.13;nan;100810.72;5185293;27;20037;-96
2024/04/19 01:05:22;;;;;;;21.65;5.32;;;;;;;9.13;nan;100810.72;5185169;27;20012;-96
2024/04/19 01:07:49;;;;;;;18.20;5.43;;;;;;;9.08;nan;100797.25;5188861;27;20012;-96
2024/04/19 01:10:15;;;;;;;21.38;5.18;;;;;;;9.07;nan;100795.53;5190158;27;20004;-96
2024/04/19 01:12:41;;;;;;;19.30;5.47;;;;;;;9.07;nan;100790.41;5192647;27;20005;-96
2024/04/19 01:15:18;;;;;;;25.35;6.20;;;;;;;9.11;nan;100797.91;5189944;27;20036;-96
2024/04/19 01:17:44;;;;;;;20.67;5.82;;;;;;;9.06;nan;100789.56;5190353;27;20008;-96
2024/04/19 01:20:09;;;;;;;18.95;5.43;;;;;;;9.07;nan;100787.81;5186067;27;20444;-96
2024/04/19 01:22:35;;;;;;;13.27;4.60;;;;;;;9.10;nan;100787.72;5183688;27;19997;-96
2024/04/19 01:25:04;;;;;;;24.33;5.55;;;;;;;9.13;nan;100803.84;5185279;27;20005;-96
2024/04/19 01:27:30;;;;;;;19.48;5.38;;;;;;;9.13;nan;100780.66;5192479;27;20011;-96
2024/04/19 01:30:00;;;;;;;21.48;5.78;;;;;;;9.12;nan;100788.44;5186712;27;20011;-96
2024/04/19 01:32:25;;;;;;;24.45;6.88;;;;;;;9.13;nan;100790.13;5184654;27;20011;-95
2024/04/19 01:34:52;;;;;;;20.35;7.20;;;;;;;9.17;nan;100781.38;5184100;27;20001;-95
2024/04/19 01:37:17;;;;;;;24.45;7.57;;;;;;;9.15;nan;100776.28;5180458;27;20004;-95
2024/04/19 01:39:42;;;;;;;16.52;5.97;;;;;;;9.26;nan;100775.78;5180503;27;20015;-96
2024/04/19 01:42:09;;;;;;;26.25;7.22;;;;;;;9.17;nan;100763.34;5188457;27;20004;-95
2024/04/19 01:44:35;;;;;;;21.08;6.53;;;;;;;9.07;nan;100759.50;5183326;27;20338;-96
2024/04/19 01:47:03;;;;;;;21.88;6.95;;;;;;;9.17;nan;100746.16;5181725;27;19996;-96
2024/04/19 01:49:28;;;;;;;22.52;7.30;;;;;;;9.19;nan;100748.63;5183073;27;20004;-96
2024/04/19 01:51:54;;;;;;;23.48;7.35;;;;;;;9.25;nan;100761.25;5183076;27;20011;-95
2024/04/19 01:54:19;;;;;;;25.88;6.90;;;;;;;9.23;nan;100744.19;5183121;27;20004;-94
2024/04/19 01:56:45;;;;;;;22.38;7.88;;;;;;;9.12;nan;100739.53;5186200;27;20012;-95
2024/04/19 01:59:11;;;;;;;27.48;7.40;;;;;;;9.25;nan;100757.84;5179984;27;20475;-96
2024/04/19 02:01:37;;;;;;;26.38;8.20;;;;;;;9.15;nan;100753.09;5182210;27;20443;-96
2024/04/19 02:04:03;;;;;;;31.00;8.48;;;;;;;9.25;nan;100757.84;5179063;27;19997;-96
2024/04/19 02:06:28;;;;;;;28.83;7.38;;;;;;;9.19;nan;100753.78;5180040;27;20011;-96
2024/04/19 02:08:54;;;;;;;30.42;7.78;;;;;;;9.12;nan;100757.53;5180228;27;20336;-96
2024/04/19 02:11:20;;;;;;;19.67;6.45;;;;;;;9.19;nan;100769.22;5179132;27;20462;-95
2024/04/19 02:13:45;;;;;;;23.00;7.35;;;;;;;9.16;nan;100748.78;5162492;27;20067;-96
2024/04/19 02:16:10;;;;;;;33.40;8.23;;;;;;;9.17;nan;100755.63;5182207;27;20072;-95
2024/04/19 02:18:36;;;;;;;18.30;6.15;;;;;;;9.12;nan;100742.09;5188556;27;20001;-96
2024/04/19 02:21:04;;;;;;;22.65;7.57;;;;;;;9.20;nan;100750.31;5187287;27;20000;-96
2024/04/19 02:23:36;;;;;;;20.42;6.88;;;;;;;9.30;nan;100759.28;5183899;27;20009;-96
2024/04/19 02:31:26;;;;;;;19.88;6.57;;;;;;;9.09;nan;100742.25;5224287;27;20014;-96
2024/04/19 02:33:53;;;;;;;27.63;9.07;;;;;;;9.15;nan;100735.06;5217137;27;19998;-96
2024/04/19 02:36:18;;;;;;;22.95;8.10;;;;;;;9.07;nan;100739.75;5216360;27;20047;-95
2024/04/19 02:38:44;;;;;;;26.63;8.93;;;;;;;9.11;nan;100749.00;5218695;27;19996;-96
2024/04/19 02:41:10;;;;;;;23.85;7.78;;;;;;;9.10;nan;100751.66;5222402;27;19992;-96
2024/04/19 02:43:35;;;;;;;24.30;8.32;;;;;;;9.09;nan;100749.97;5216603;27;20031;-96
2024/04/19 02:46:04;;;;;;;21.25;8.05;;;;;;;9.14;nan;100755.75;5218780;27;20014;-96
2024/04/19 02:48:32;;;;;;;26.52;7.38;;;;;;;9.21;nan;100746.81;5216804;27;20003;-96
2024/04/19 02:50:58;;;;;;;23.52;6.68;;;;;;;9.26;nan;100731.97;5216817;27;20002;-96
2024/04/19 02:53:23;;;;;;;24.08;6.57;;;;;;;9.20;nan;100740.00;5214621;27;19999;-95
2024/04/19 02:55:52;;;;;;;25.05;5.68;;;;;;;9.20;nan;100740.00;5214861;27;20009;-95
2024/04/19 02:58:18;;;;;;;30.25;7.35;;;;;;;9.23;nan;100745.00;5206018;27;20011;-96
2024/04/19 03:00:44;;;;;;;32.00;7.25;;;;;;;9.17;nan;100745.31;5184745;27;19996;-96
2024/04/19 03:03:10;;;;;;;24.67;6.78;;;;;;;9.18;nan;100736.69;5189671;27;20002;-96
2024/04/19 03:05:38;;;;;;;21.45;5.85;;;;;;;9.33;nan;100750.56;5191207;27;19985;-96
2024/04/19 03:08:07;;;;;;;19.48;5.47;;;;;;;9.15;nan;100736.81;5190872;27;20008;-96
2024/04/19 03:10:38;;;;;;;19.48;5.32;;;;;;;9.32;nan;100752.31;5192286;27;20037;-96
2024/04/19 03:13:03;;;;;;;26.17;5.93;;;;;;;9.24;nan;100736.38;5187929;27;20012;-96
2024/04/19 03:15:29;;;;;;;21.40;5.60;;;;;;;9.19;nan;100731.47;5179161;27;20093;-96
2024/04/19 03:17:54;;;;;;;25.23;6.05;;;;;;;9.27;nan;100736.25;5180316;27;19997;-96
2024/04/19 03:20:20;;;;;;;23.77;5.28;;;;;;;9.29;nan;100734.44;5184534;27;20065;-94
2024/04/19 03:22:45;;;;;;;19.67;5.78;;;;;;;9.21;nan;100731.38;5184684;27;19997;-95
2024/04/19 03:25:12;;;;;;;22.70;5.18;;;;;;;9.30;nan;100730.13;5182045;27;20024;-95
2024/04/19 03:27:37;;;;;;;33.13;5.57;;;;;;;9.17;nan;100727.28;5180667;27;20001;-95
2024/04/19 03:30:03;;;;;;;24.98;5.28;;;;;;;9.36;nan;100750.41;5179562;27;20008;-96
2024/04/19 03:32:38;;;;;;;20.40;5.60;;;;;;;9.31;nan;100732.59;5180051;27;20008;-96
2024/04/19 03:35:03;;;;;;;16.60;4.97;;;;;;;9.32;nan;100736.88;5180400;27;20012;-96
2024/04/19 03:37:29;;;;;;;26.85;5.95;;;;;;;9.29;nan;100736.16;5181567;27;20075;-96
2024/04/19 03:39:54;;;;;;;17.48;4.95;;;;;;;9.24;nan;100738.94;5182463;27;20016;-96
2024/04/19 03:42:20;;;;;;;15.13;5.32;;;;;;;9.25;nan;100740.63;5181564;27;20111;-96
2024/04/19 03:47:33;;;;;;;19.80;4.53;;;;;;;9.24;nan;100738.94;5191353;27;20012;-96
2024/04/19 03:49:59;;;;;;;32.20;4.95;;;;;;;9.30;nan;100736.09;5184109;27;20001;-96
2024/04/19 03:52:24;;;;;;;19.35;5.22;;;;;;;9.20;nan;100729.72;5187485;27;20007;-95
2024/04/19 03:54:51;;;;;;;19.45;4.72;;;;;;;9.27;nan;100723.38;5187774;27;20004;-96
2024/04/19 03:57:17;;;;;;;20.13;4.75;;;;;;;9.29;nan;100729.28;5190305;27;20384;-96
2024/04/19 03:59:46;;;;;;;22.25;4.60;;;;;;;9.26;nan;100729.41;5178776;27;20012;-96
2024/04/19 04:02:11;;;;;;;19.50;5.28;;;;;;;9.17;nan;100719.56;5179136;27;20012;-96
2024/04/19 04:04:37;;;;;;;18.20;4.13;;;;;;;9.27;nan;100728.53;5179806;27;20000;-96
2024/04/19 04:07:02;;;;;;;19.70;5.57;;;;;;;9.23;nan;100721.84;5153890;27;20012;-96
2024/04/19 04:09:28;;;;;;;23.25;5.63;;;;;;;9.18;nan;100721.22;5179474;27;20001;-95
2024/04/19 04:11:54;;;;;;;14.68;3.55;;;;;;;9.21;nan;100726.22;5180138;27;20001;-96
2024/04/19 04:14:19;;;;;;;19.17;5.57;;;;;;;9.25;nan;100726.94;5205531;27;20015;-96
2024/04/19 04:16:46;;;;;;;14.85;3.95;;;;;;;9.22;nan;100727.91;5214532;27;20443;-96
2024/04/19 04:19:12;;;;;;;24.25;4.80;;;;;;;9.20;nan;100724.56;5214911;27;20006;-96
2024/04/19 04:21:37;;;;;;;14.23;4.30;;;;;;;9.33;nan;100728.22;5215363;27;19999;-95
2024/04/19 04:24:03;;;;;;;14.90;4.00;;;;;;;9.24;nan;100720.09;5217797;27;20000;-96
2024/04/19 04:26:28;;;;;;;20.00;3.75;;;;;;;9.17;nan;100720.41;5216854;27;20007;-96
2024/04/19 04:28:53;;;;;;;22.88;4.13;;;;;;;9.28;nan;100731.94;5210724;27;20330;-95
2024/04/19 04:31:19;;;;;;;18.67;3.10;;;;;;;9.29;nan;100729.28;5183571;27;20011;-96
2024/04/19 04:33:44;;;;;;;14.15;3.63;;;;;;;9.38;nan;100733.16;5182851;27;20011;-96
2024/04/19 04:36:10;;;;;;;22.67;4.07;;;;;;;9.22;nan;100725.34;5183824;27;20458;-94
2024/04/19 04:38:35;;;;;;;13.20;4.18;;;;;;;9.12;nan;100722.34;5184649;27;20000;-96
2024/04/19 04:41:04;;;;;;;14.68;3.67;;;;;;;9.08;nan;100709.69;5184209;27;20004;-94
2024/04/19 04:43:29;;;;;;;22.35;3.50;;;;;;;9.01;nan;100711.72;5181756;27;19997;-96
2024/04/19 04:45:55;;;;;;;21.83;3.90;;;;;;;9.15;nan;100729.09;5178061;27;20012;-95
2024/04/19 04:48:20;;;;;;;11.77;4.15;;;;;;;9.13;nan;100715.47;5178780;27;20001;-95
2024/04/19 04:50:49;;;;;;;13.70;3.33;;;;;;;9.21;nan;100709.03;5157391;27;20012;-96
2024/04/19 04:53:14;;;;;;;15.98;3.15;;;;;;;9.22;nan;100702.16;5152766;27;20072;-95
2024/04/19 04:55:40;;;;;;;18.60;4.22;;;;;;;9.15;nan;100711.06;5151813;27;20329;-96
2024/04/19 04:58:05;;;;;;;16.48;3.30;;;;;;;9.25;nan;100727.75;5151709;27;20005;-96
2024/04/19 05:00:37;;;;;;;25.35;4.18;;;;;;;9.05;nan;100713.25;5180402;27;20009;-96
2024/04/19 05:03:05;;;;;;;15.13;4.03;;;;;;;9.12;nan;100716.34;5155794;27;20037;-96
2024/04/19 05:05:31;;;;;;;16.63;3.75;;;;;;;9.15;nan;100716.22;5155548;27;20012;-96
2024/04/19 05:07:57;;;;;;;16.35;3.40;;;;;;;9.17;nan;100714.41;5171205;27;20003;-96
2024/04/19 05:10:23;;;;;;;14.90;4.30;;;;;;;9.24;nan;100713.19;5215677;27;20071;-96
2024/04/19 05:12:48;;;;;;;16.35;3.65;;;;;;;9.26;nan;100706.22;5213466;27;20004;-96
2024/04/19 05:15:14;;;;;;;14.18;2.63;;;;;;;9.34;nan;100706.72;5214794;27;19992;-96
2024/04/19 05:17:40;;;;;;;13.63;3.25;;;;;;;9.40;nan;100714.13;5210977;27;20004;-96
2024/04/19 05:20:06;;;;;;;12.55;3.15;;;;;;;9.36;nan;100717.78;5213064;27;20334;-96
2024/04/19 05:22:35;;;;;;;16.63;2.88;;;;;;;9.46;nan;100709.59;5213621;27;20003;-96
2024/04/19 05:25:00;;;;;;;19.13;3.95;;;;;;;9.57;nan;100727.94;5215036;27;20011;-96
2024/04/19 05:27:26;;;;;;;15.32;3.17;;;;;;;9.62;nan;100741.44;5219833;27;20018;-96
2024/04/19 05:29:51;;;;;;;13.10;3.13;;;;;;;9.55;nan;100742.66;5222857;27;20004;-96
2024/04/19 05:32:17;;;;;;;15.60;2.58;;;;;;;9.49;nan;100717.19;5217605;27;20007;-96
2024/04/19 05:34:43;;;;;;;11.10;2.67;;;;;;;9.39;nan;100709.91;5221876;27;19996;-96
2024/04/19 05:37:09;;;;;;;15.07;2.85;;;;;;;9.27;nan;100705.34;5222989;27;20003;-95
2024/04/19 05:39:35;;;;;;;14.70;3.15;;;;;;;9.42;nan;100717.47;5221706;27;20006;-96
2024/04/19 05:42:09;;;;;;;16.15;3.28;;;;;;;9.32;nan;100703.38;5224380;27;19996;-95
2024/04/19 06:00:08;;;;;;;19.70;3.65;;;;;;;8.93;nan;100712.06;5566904;21;20049;-96
2024/04/19 06:02:33;;;;;;;11.75;2.63;;;;;;;8.81;nan;100709.22;5220123;27;19996;-96
2024/04/19 06:05:00;;;;;;;11.88;2.40;;;;;;;8.76;nan;100710.28;5221852;27;19998;-96
2024/04/19 06:07:25;;;;;;;9.75;2.42;;;;;;;8.86;nan;100715.00;5218976;27;20020;-96
2024/04/19 06:09:51;;;;;;;11.52;2.55;;;;;;;8.95;nan;100709.44;5215766;27;20007;-96
2024/04/19 06:12:16;;;;;;;7.80;1.73;;;;;;;8.97;nan;100708.47;5247606;27;20011;-94
2024/04/19 06:17:17;;;;;;;16.33;2.60;;;;;;;8.96;nan;100706.78;5338158;21;20003;-95
2024/04/19 06:19:48;;;;;;;8.32;2.33;;;;;;;8.95;nan;100712.00;5250161;27;19995;-95
2024/04/19 06:22:14;;;;;;;17.35;2.50;;;;;;;8.89;nan;100713.09;5250417;27;20009;-95
2024/04/19 06:24:40;;;;;;;11.63;2.63;;;;;;;8.97;nan;100707.59;5225737;27;20000;-95
2024/04/19 06:27:38;;;;;;;15.70;3.03;;;;;;;9.03;nan;100706.50;5201934;27;20049;-96
2024/04/19 07:03:42;;;;;;;6.88;1.08;;;;;;;17.95;nan;100714.22;6120498;22;19999;-96
2024/04/19 07:36:06;;;;;;;5.20;1.25;;;;;;;12.73;nan;100759.78;6151721;21;20010;-96
2024/04/19 07:46:17;;;;;;;2.88;0.80;;;;;;;12.50;nan;100749.97;5260014;22;20019;-95
2024/04/19 07:48:43;;;;;;;4.10;0.90;;;;;;;12.50;nan;100755.16;5216769;27;20015;-96
2024/04/19 07:51:10;;;;;;;5.47;0.73;;;;;;;12.48;nan;100739.69;5215232;27;20035;-96
2024/04/19 07:53:36;;;;;;;5.63;0.50;;;;;;;12.82;nan;100740.22;5188816;27;20016;-96
2024/04/19 07:56:01;;;;;;;2.83;0.40;;;;;;;13.00;nan;100739.09;5480396;22;19992;-96
2024/04/19 07:58:27;;;;;;;4.70;0.60;;;;;;;13.07;nan;100744.72;5219542;27;20015;-96
2024/04/19 08:00:55;;;;;;;3.95;0.70;;;;;;;13.01;nan;100742.50;5225266;27;20056;-95
2024/04/19 08:03:22;;;;;;;4.55;1.25;;;;;;;13.16;nan;100741.53;5217635;27;20018;-95
2024/04/19 08:05:50;;;;;;;2.97;0.70;;;;;;;13.10;nan;100739.34;5219177;27;20020;-96
2024/04/19 08:08:19;;;;;;;5.97;1.05;;;;;;;13.21;nan;100731.69;5225002;27;20478;-95
2024/04/19 08:10:45;;;;;;;4.35;0.90;;;;;;;13.37;nan;100741.13;5183484;27;20048;-96
2024/04/19 08:15:52;;;;;;;1.80;0.60;;;;;;;13.96;nan;100722.56;6062961;21;20003;-94
2024/04/19 08:31:55;;;;;;;3.97;0.60;;;;;;;15.82;nan;100707.66;6159139;21;20060;-96
2024/04/19 08:34:20;;;;;;;4.32;0.30;;;;;;;14.90;nan;100693.56;5222497;27;20012;-96
2024/04/19 08:41:51;;;;;;;3.13;0.68;;;;;;;13.11;nan;100748.75;5220191;27;20012;-96
2024/04/19 08:44:21;;;;;;;1.63;0.38;;;;;;;13.07;nan;100734.34;5220831;27;19998;-96
2024/04/19 08:46:48;;;;;;;1.85;0.50;;;;;;;13.28;nan;100753.75;5222995;27;20014;-94
2024/04/19 08:49:15;;;;;;;3.40;0.73;;;;;;;13.28;nan;100745.97;5213153;27;20019;-95
2024/04/19 08:51:41;;;;;;;4.07;1.05;;;;;;;13.38;nan;100742.78;5219091;27;20016;-96
2024/04/19 08:54:08;;;;;;;4.50;0.70;;;;;;;13.28;nan;100758.09;5187671;27;20103;-95
2024/04/19 08:56:38;;;;;;;3.42;0.60;;;;;;;13.13;nan;100739.13;5218394;27;20074;-96
2024/04/19 09:17:13;;;;;;;6.22;0.68;;;;;;;12.66;nan;100784.38;5430835;22;20083;-96
2024/04/19 11:54:11;;;;;;;0.52;0.25;;;;;;;13.09;nan;100788.66;6337949;22;20025;-94
2024/04/19 12:01:48;;;;;;;0.73;0.20;;;;;;;14.41;nan;100770.56;5439292;22;20024;-95
2024/04/19 12:04:24;;;;;;;1.65;0.10;;;;;;;14.65;nan;100767.22;5382459;21;20473;-95
2024/04/19 12:06:49;;;;;;;0.93;0.20;;;;;;;14.60;nan;100770.13;5490487;21;20000;-95
2024/04/19 12:14:19;;;;;;;0.50;0.20;;;;;;;15.83;nan;100762.22;6278901;21;20022;-96
2024/04/19 12:34:45;;;;;;;1.33;0.10;;;;;;;16.49;nan;100766.81;5218674;27;20048;-95
2024/04/19 12:37:11;;;;;;;2.40;0.28;;;;;;;15.47;nan;100770.09;5219877;27;19999;-96
2024/04/19 12:39:36;;;;;;;0.88;0.25;;;;;;;15.65;nan;100763.53;5223184;27;20092;-96
2024/04/19 12:58:25;;;;;;;1.75;0.20;;;;;;;16.67;nan;100760.16;5576146;21;20306;-95
2024/04/19 13:03:31;;;;;;;2.42;0.20;;;;;;;17.58;nan;100762.59;5323756;21;20259;-95
2024/04/19 13:05:58;;;;;;;1.40;0.22;;;;;;;18.04;nan;100759.63;5219412;27;20014;-96
2024/04/19 13:08:27;;;;;;;1.08;0.20;;;;;;;17.84;nan;100748.25;5196565;27;20051;-96
2024/04/19 13:10:53;;;;;;;0.68;0.10;;;;;;;17.21;nan;100755.13;5179227;27;20375;-93
2024/04/19 13:13:18;;;;;;;0.95;0.38;;;;;;;17.36;nan;100758.28;5182295;27;20000;-95
2024/04/19 13:15:44;;;;;;;1.35;0.20;;;;;;;17.53;nan;100762.94;5179072;27;20019;-95
2024/04/19 13:18:10;;;;;;;0.40;0.10;;;;;;;17.00;nan;100761.13;5178418;27;20121;-95
2024/04/19 13:20:36;;;;;;;1.45;0.25;;;;;;;15.97;nan;100753.41;5172425;27;20427;-92
2024/04/19 13:23:01;;;;;;;0.90;0.15;;;;;;;15.85;nan;100754.31;5158728;27;20032;-93
2024/04/19 13:25:27;;;;;;;0.98;0.20;;;;;;;16.05;nan;100763.22;5175446;27;20317;-94
2024/04/19 13:27:52;;;;;;;1.13;0.30;;;;;;;15.87;nan;100751.56;5168378;27;20004;-92
2024/04/19 13:30:17;;;;;;;2.40;0.10;;;;;;;16.03;nan;100762.50;5176377;27;20083;-92
2024/04/19 13:32:43;;;;;;;2.28;0.55;;;;;;;15.66;nan;100760.00;5177060;27;20067;-92
2024/04/19 13:35:08;;;;;;;1.58;0.35;;;;;;;15.45;nan;100745.97;5176523;27;20450;-92
2024/04/19 13:37:34;;;;;;;1.17;0.30;;;;;;;15.25;nan;100750.03;5177263;27;20072;-93
2024/04/19 13:39:59;;;;;;;0.20;0.10;;;;;;;15.09;nan;100763.28;5174910;27;20019;-93
2024/04/19 13:42:25;;;;;;;1.85;0.30;;;;;;;14.90;nan;100762.00;5176269;27;20000;-94
2024/04/19 13:44:50;;;;;;;0.63;0.13;;;;;;;15.08;nan;100761.63;5175073;27;20443;-92
2024/04/19 13:47:17;;;;;;;1.05;0.10;;;;;;;14.62;nan;100757.06;5175156;27;20083;-93
2024/04/19 13:49:43;;;;;;;2.55;0.15;;;;;;;14.66;nan;100772.31;5178343;27;20023;-94
2024/04/19 13:52:09;;;;;;;4.95;0.30;;;;;;;14.33;nan;100794.44;5177035;27;20009;-92
2024/04/19 13:54:34;;;;;;;9.50;0.70;;;;;;;14.02;nan;100795.66;5177383;27;20014;-95
2024/04/19 13:56:59;;;;;;;1.65;0.30;;;;;;;13.90;nan;100791.28;5174488;27;20100;-94
2024/04/19 13:59:25;;;;;;;0.68;0.17;;;;;;;13.70;nan;100789.97;5175598;27;20408;-94
2024/04/19 14:01:50;;;;;;;0.28;0.10;;;;;;;13.76;nan;100791.34;5174426;27;20015;-94
2024/04/19 14:04:17;;;;;;;3.35;0.70;;;;;;;13.59;nan;100788.09;5183152;27;20009;-95
2024/04/19 14:30:10;;;;;;;1.20;0.30;;;;;;;15.51;nan;100784.53;5273921;21;20024;-96
2024/04/19 14:32:36;;;;;;;0.43;0.10;;;;;;;15.59;nan;100788.25;5227276;27;19992;-96
2024/04/19 14:37:40;;;;;;;0.08;0.08;;;;;;;15.77;nan;100778.28;5325260;22;20027;-96
2024/04/19 14:42:39;;;;;;;0.37;0.20;;;;;;;15.80;nan;100778.06;5190875;27;20029;-96
2024/04/19 14:45:17;;;;;;;0.30;0.10;;;;;;;15.69;nan;100764.97;5477595;21;20008;-95
2024/04/19 14:47:43;;;;;;;1.30;0.13;;;;;;;15.53;nan;100764.44;5227611;27;20354;-95
2024/04/19 15:54:36;;;;;;;0.82;0.50;;;;;;;15.13;nan;100775.94;4816765;21;20772;-93
2024/04/19 16:07:23;;;;;;;1.77;0.60;;;;;;;14.59;nan;100770.25;6113467;21;20006;-95
2024/04/19 16:09:48;;;;;;;2.08;0.68;;;;;;;14.67;nan;100775.75;5709806;21;20000;-95
2024/04/19 16:12:15;;;;;;;0.73;0.30;;;;;;;14.67;nan;100775.75;5247135;21;20011;-95
2024/04/19 16:14:41;;;;;;;0.82;0.30;;;;;;;14.69;nan;100794.66;5531242;22;20019;-93
2024/04/19 16:17:06;;;;;;;1.60;0.43;;;;;;;14.53;nan;100787.94;5215189;27;20011;-93
2024/04/19 16:19:32;;;;;;;2.13;0.70;;;;;;;14.52;nan;100794.03;5221564;27;19999;-95
2024/04/19 16:22:00;;;;;;;1.92;0.47;;;;;;;14.59;nan;100794.47;5223819;27;20009;-94
2024/04/19 16:24:35;;;;;;;3.05;0.52;;;;;;;14.32;nan;100804.94;5524368;21;20812;-95
2024/04/19 16:27:01;;;;;;;15.82;0.85;;;;;;;14.21;nan;100795.25;5221458;27;20011;-95
2024/04/19 16:37:20;;;;;;;4.40;0.80;;;;;;;14.17;nan;100816.31;5446565;21;20051;-94
2024/04/19 16:39:49;;;;;;;2.28;0.60;;;;;;;14.09;nan;100811.66;5217683;27;20006;-96
2024/04/19 17:17:40;;;;;;;1.63;0.77;;;;;;;13.69;nan;100866.97;5215887;27;20022;-94
2024/04/19 17:20:09;;;;;;;2.58;0.70;;;;;;;13.77;nan;100873.44;5474274;21;20000;-96
2024/04/19 17:22:35;;;;;;;2.13;0.73;;;;;;;13.64;nan;100874.22;5222129;27;20019;-96
2024/04/19 17:25:01;;;;;;;2.50;1.00;;;;;;;13.60;nan;100877.09;5217200;27;20031;-94
2024/04/19 17:27:26;;;;;;;1.85;0.60;;;;;;;13.57;nan;100880.72;5211731;27;19999;-93
2024/04/19 17:45:31;;;;;;;8.73;1.90;;;;;;;13.45;nan;100915.19;5943750;22;7382712;-95
2024/04/19 17:50:33;;;;;;;8.38;2.10;;;;;;;13.15;nan;100923.91;5231393;22;19998;-94
2024/04/19 17:55:35;;;;;;;3.63;1.25;;;;;;;12.98;nan;100921.47;6146939;21;20016;31
2024/04/19 17:58:00;;;;;;;6.20;2.35;;;;;;;12.81;nan;100933.66;5657787;22;20009;-93
2024/04/19 18:00:27;;;;;;;4.90;1.77;;;;;;;12.82;nan;100937.91;5178902;27;20519;-92
2024/04/19 18:02:52;;;;;;;4.57;1.70;;;;;;;12.63;nan;100942.50;5205441;27;20012;-96
2024/04/19 18:05:18;;;;;;;4.50;1.80;;;;;;;12.66;nan;100944.94;5178282;27;20001;-95
2024/04/19 18:07:47;;;;;;;7.03;1.80;;;;;;;12.49;nan;100942.50;5176638;27;20340;-96
2024/04/19 18:10:15;;;;;;;5.82;1.77;;;;;;;12.42;nan;100936.81;5154208;27;19996;-96
2024/04/19 18:12:41;;;;;;;3.92;1.50;;;;;;;12.55;nan;100955.06;5177700;27;20415;-91
2024/04/19 18:15:06;;;;;;;4.88;1.92;;;;;;;12.39;nan;100955.97;5176682;27;20000;-90
2024/04/19 18:17:31;;;;;;;5.55;1.55;;;;;;;12.27;nan;100961.81;5176692;27;20001;-94
2024/04/19 18:20:01;;;;;;;7.15;1.98;;;;;;;12.13;nan;100974.69;5182133;27;20075;-94
2024/04/19 18:22:26;;;;;;;5.88;1.83;;;;;;;12.15;nan;100967.69;5178050;27;20004;-95
2024/04/19 18:24:52;;;;;;;3.35;1.35;;;;;;;12.11;nan;100967.00;5179690;27;20328;-95
2024/04/19 18:27:17;;;;;;;4.47;2.75;;;;;;;12.03;nan;100970.94;5191934;27;19996;-96
2024/04/19 18:29:46;;;;;;;4.20;1.67;;;;;;;11.87;nan;100969.19;5452674;22;20016;-95
2024/04/19 18:32:12;;;;;;;6.28;1.60;;;;;;;11.72;nan;100963.06;5307296;22;20016;-96
2024/04/19 18:34:38;;;;;;;7.57;1.60;;;;;;;11.66;nan;100981.50;5228887;27;20008;-94
2024/04/19 18:37:04;;;;;;;5.60;2.20;;;;;;;11.61;nan;100978.31;5216579;27;20015;-93
2024/04/19 18:39:29;;;;;;;5.30;1.75;;;;;;;11.50;nan;100986.63;5195267;27;20008;-95
2024/04/19 18:41:55;;;;;;;6.55;1.85;;;;;;;11.46;nan;100990.31;5214175;27;20552;-95
2024/04/19 18:44:20;;;;;;;5.22;1.50;;;;;;;11.51;nan;100993.50;5209805;27;20003;-95
2024/04/19 18:46:45;;;;;;;2.58;1.40;;;;;;;11.26;nan;100998.25;5211514;27;20003;-96
2024/04/19 18:51:46;;;;;;;4.90;1.92;;;;;;;11.10;nan;101006.78;5256239;22;20027;-96
2024/04/19 18:54:15;;;;;;;5.20;1.85;;;;;;;11.00;nan;101003.00;5194003;27;20000;-95
2024/04/19 18:56:44;;;;;;;5.20;1.52;;;;;;;10.90;nan;101004.38;5225539;27;20035;-95
2024/04/19 18:59:10;;;;;;;5.35;1.63;;;;;;;10.84;nan;101002.09;5234737;27;20031;-96
2024/04/19 19:01:46;;;;;;;3.65;1.95;;;;;;;10.78;nan;101012.69;5223437;27;20335;-95
2024/04/19 19:04:12;;;;;;;6.00;1.85;;;;;;;10.69;nan;101008.84;5196732;27;20035;-96
2024/04/19 19:06:38;;;;;;;4.95;1.60;;;;;;;10.61;nan;101011.81;5235311;27;19999;-94
2024/04/19 19:09:22;;;;;;;4.75;1.63;;;;;;;10.66;nan;101019.31;5237960;27;20018;-95
2024/04/19 19:11:48;;;;;;;11.48;1.45;;;;;;;10.36;nan;101006.13;5199674;27;20007;-96
2024/04/19 19:14:16;;;;;;;5.20;1.88;;;;;;;10.37;nan;101018.13;5226804;27;19999;-96
2024/04/19 19:19:37;;;;;;;8.10;2.08;;;;;;;10.34;nan;101033.75;5379233;21;20028;-96
2024/04/19 19:22:02;;;;;;;5.28;1.50;;;;;;;10.23;nan;101032.47;5216741;27;20000;-96
2024/04/19 19:24:31;;;;;;;6.88;1.73;;;;;;;10.17;nan;101037.06;5202337;27;20003;-96
2024/04/19 19:26:59;;;;;;;5.28;1.73;;;;;;;10.10;nan;101052.00;5536469;21;21015;-95
2024/04/19 19:29:24;;;;;;;5.38;1.90;;;;;;;10.07;nan;101059.88;5257149;27;20024;-96
2024/04/19 19:31:51;;;;;;;4.18;1.63;;;;;;;10.21;nan;101070.41;5254653;27;20007;-95
2024/04/19 19:39:50;;;;;;;7.45;2.10;;;;;;;9.91;nan;101092.44;5847670;22;19995;-96
2024/04/19 19:42:58;;;;;;;3.80;1.98;;;;;;;9.88;nan;101087.41;5242854;27;19999;-96
2024/04/19 19:45:24;;;;;;;7.22;2.22;;;;;;;9.86;nan;101101.19;5263580;27;20006;-94
2024/04/19 20:07:18;;;;;;;5.20;2.58;;;;;;;9.23;nan;101117.66;5657163;21;20018;-95
2024/04/19 20:35:50;;;;;;;9.10;3.10;;;;;;;9.00;nan;101163.19;6371641;21;21284;-96
2024/04/19 20:38:23;;;;;;;7.93;3.28;;;;;;;9.02;nan;101171.66;5566644;21;20004;-96
2024/04/19 20:40:49;;;;;;;9.60;3.65;;;;;;;8.91;nan;101176.41;5235638;27;20007;-96
2024/04/19 20:48:25;;;;;;;8.45;3.25;;;;;;;8.79;nan;101177.72;5643750;21;20078;-96
